Lincoln, IL

2:21 AM CDT on August 21, 2017 (GMT -0500)
Lincoln

Weather History for KAAA - December, 2013

Change the Weather History Date:

Tuesday, December 24, 2013

  Actual Average (KSPI) Record (KSPI)
Temperature  
Mean Temperature 12 °F -  
Max Temperature 22 °F 33 °F 67 °F (1889)
Min Temperature 3 °F 17 °F -16 °F (1983)
Degree Days  
Heating Degree Days 52    
Moisture  
Dew Point 4 °F    
Average Humidity 66    
Maximum Humidity 72    
Minimum Humidity 62    
Precipitation  
Precipitation 0.00 in - - ()
Sea Level Pressure  
Sea Level Pressure 30.53 in    
Wind  
Wind Speed 6 mph (SSW)    
Max Wind Speed 18 mph    
Max Gust Speed 22 mph    
Visibility 10 miles    
Events      
Averages and records for this station are not official NWS values.
T = Trace of Precipitation, MM = Missing Value Source: NWS Daily Summary

Daily Weather History Graph

Daily Weather History Graph

Search for Another Location

Airport or City:

Trip Planner

Search our weather history database for the weather conditions in past years. The results will help you decide how hot, cold, wet, or windy it might be!

Date:

Astronomy

Dec. 24, 2013 Rise Set
Actual Time 7:17 AM CST 4:36 PM CST
Civil Twilight 6:46 AM CST 5:07 PM CST
Nautical Twilight 6:12 AM CST 5:41 PM CST
Astronomical Twilight 5:39 AM CST 6:14 PM CST
Moon 11:45 PM CST (12/24) 11:11 AM CST (12/24)
Length of Visible Light 10h 20m
Length of Day
9h 18m
Waning Gibbous, 58% of the Moon is Illuminated
Dec 24
Waning Gibbous
Dec 25
Last Quarter
Jan 1
New
Jan 7
First Quarter
Jan 15
Full

Hourly Weather History & Observations

Time (CST) Temp. Windchill Dew Point Humidity Pressure Visibility Wind Dir Wind Speed Gust Speed Precip Events Conditions
12:15 AM 7.3 °F -2.8 °F -2.4 °F 65% 30.57 in 10.0 mi WNW 5.8 mph - N/A   Clear
12:35 AM 7.3 °F -5.2 °F -2.2 °F 65% 30.57 in 10.0 mi West 8.1 mph - N/A   Clear
12:55 AM 7.3 °F -4.1 °F -1.8 °F 66% 30.57 in 10.0 mi West 6.9 mph - N/A   Clear
1:15 AM 7.2 °F -3.0 °F -2.4 °F 65% 30.57 in 10.0 mi West 5.8 mph - N/A   Clear
1:35 AM 6.8 °F -2.0 °F -2.4 °F 66% 30.57 in 10.0 mi West 4.6 mph - N/A   Clear
1:55 AM 6.8 °F -4.8 °F -2.4 °F 66% 30.57 in 10.0 mi West 6.9 mph - N/A   Clear
2:15 AM 6.4 °F -3.9 °F -2.7 °F 66% 30.57 in 10.0 mi WNW 5.8 mph - N/A   Clear
2:35 AM 6.3 °F -2.6 °F -2.7 °F 67% 30.57 in 10.0 mi WNW 4.6 mph - N/A   Clear
2:55 AM 5.9 °F -3.0 °F -2.7 °F 68% 30.58 in 10.0 mi West 4.6 mph - N/A   Clear
3:15 AM 5.7 °F -3.2 °F -3.3 °F 66% 30.58 in 10.0 mi WNW 4.6 mph - N/A   Clear
3:35 AM 5.5 °F -1.5 °F -2.7 °F 69% 30.58 in 10.0 mi West 3.5 mph - N/A   Clear
3:55 AM 5.0 °F -2.1 °F -3.6 °F 68% 30.57 in 10.0 mi WNW 3.5 mph - N/A   Clear
4:15 AM 5.0 °F - -3.5 °F 68% 30.58 in 10.0 mi Calm Calm - N/A   Clear
4:35 AM 4.8 °F -4.3 °F -3.6 °F 68% 30.58 in 10.0 mi WNW 4.6 mph - N/A   Clear
4:55 AM 4.5 °F -2.7 °F -3.8 °F 69% 30.58 in 10.0 mi WNW 3.5 mph - N/A   Clear
5:15 AM 4.1 °F - -4.0 °F 69% 30.59 in 10.0 mi Calm Calm - N/A   Clear
5:35 AM 4.1 °F -3.2 °F -4.0 °F 69% 30.60 in 10.0 mi West 3.5 mph - N/A   Clear
5:55 AM 3.7 °F -3.6 °F -4.4 °F 69% 30.60 in 10.0 mi WNW 3.5 mph - N/A   Clear
6:15 AM 3.7 °F -5.5 °F -4.0 °F 70% 30.60 in 10.0 mi West 4.6 mph - N/A   Clear
6:35 AM 3.7 °F - -4.0 °F 70% 30.60 in 10.0 mi Calm Calm - N/A   Clear
6:55 AM 3.2 °F -4.2 °F -4.0 °F 72% 30.60 in 10.0 mi WNW 3.5 mph - N/A   Clear
7:15 AM 3.2 °F -6.2 °F -4.0 °F 72% 30.61 in 10.0 mi WNW 4.6 mph - N/A   Clear
7:35 AM 3.2 °F -4.2 °F -4.2 °F 71% 30.61 in 10.0 mi WNW 3.5 mph - N/A   Clear
7:55 AM 3.2 °F - -4.2 °F 71% 30.61 in 10.0 mi Calm Calm - N/A   Clear
8:15 AM 4.3 °F -2.9 °F -4.2 °F 68% 30.61 in 10.0 mi NW 3.5 mph - N/A   Clear
8:35 AM 5.5 °F -3.4 °F -3.8 °F 65% 30.62 in 10.0 mi WNW 4.6 mph - N/A   Clear
8:55 AM 5.9 °F -1.1 °F -3.6 °F 65% 30.63 in 10.0 mi West 3.5 mph - N/A   Clear
9:15 AM 6.4 °F - -4.0 °F 62% 30.62 in 10.0 mi Calm Calm - N/A   Clear
9:35 AM 7.3 °F - -2.9 °F 63% 30.62 in 10.0 mi Calm Calm - N/A   Clear
9:55 AM 8.8 °F 2.2 °F -1.7 °F 63% 30.64 in 10.0 mi SW 3.5 mph - N/A   Clear
10:15 AM 9.5 °F - -0.8 °F 63% 30.63 in 10.0 mi Calm Calm - N/A   Clear
10:35 AM 10.0 °F 1.8 °F -0.4 °F 63% 30.62 in 10.0 mi WNW 4.6 mph - N/A   Clear
10:55 AM 10.9 °F 4.7 °F 0.9 °F 64% 30.62 in 10.0 mi WSW 3.5 mph - N/A   Clear
11:15 AM 11.8 °F - 1.0 °F 62% 30.61 in 10.0 mi Calm Calm - N/A   Clear
11:35 AM 12.9 °F 6.9 °F 2.7 °F 64% 30.60 in 10.0 mi WSW 3.5 mph - N/A   Clear
11:55 AM 13.3 °F - 3.0 °F 64% 30.59 in 10.0 mi Calm Calm - N/A   Clear
12:15 PM 14.4 °F 6.9 °F 3.9 °F 63% 30.57 in 10.0 mi SSW 4.6 mph - N/A   Clear
12:35 PM 14.9 °F 6.1 °F 5.2 °F 65% 30.56 in 10.0 mi South 5.8 mph - N/A   Clear
12:55 PM 15.6 °F - 5.5 °F 64% 30.55 in 10.0 mi Calm Calm - N/A   Clear
1:13 PM 17.6 °F 10.7 °F 6.8 °F 63% 30.54 in 10.0 mi South 4.6 mph - N/A   Clear
1:15 PM 16.7 °F 9.6 °F 6.6 °F 65% 30.54 in 10.0 mi South 4.6 mph - N/A   Clear
1:35 PM 17.2 °F 8.9 °F 7.5 °F 66% 30.53 in 10.0 mi South 5.8 mph - N/A   Clear
1:55 PM 18.0 °F 11.1 °F 8.4 °F 66% 30.52 in 10.0 mi SE 4.6 mph - N/A   Clear
2:15 PM 18.5 °F 11.7 °F 8.8 °F 66% 30.52 in 10.0 mi SSE 4.6 mph - N/A   Clear
2:35 PM 19.0 °F 12.3 °F 9.1 °F 65% 30.52 in 10.0 mi South 4.6 mph - N/A   Clear
2:55 PM 19.4 °F 11.5 °F 9.7 °F 66% 30.50 in 10.0 mi South 5.8 mph - N/A   Clear
3:15 PM 20.1 °F 10.3 °F 10.6 °F 67% 30.51 in 10.0 mi South 8.1 mph - N/A   Clear
3:35 PM 19.8 °F 9.1 °F 10.4 °F 67% 30.50 in 10.0 mi South 9.2 mph - N/A   Clear
3:55 PM 19.4 °F 9.5 °F 10.4 °F 68% 30.50 in 10.0 mi South 8.1 mph - N/A   Clear
4:15 PM 20.1 °F 9.5 °F 11.1 °F 68% 30.50 in 10.0 mi SSE 9.2 mph - N/A   Mostly Cloudy
4:35 PM 20.3 °F 10.6 °F 10.6 °F 66% 30.49 in 10.0 mi South 8.1 mph - N/A   Overcast
4:55 PM 20.3 °F 11.5 °F 11.3 °F 68% 30.48 in 10.0 mi SSE 6.9 mph - N/A   Mostly Cloudy
5:15 PM 20.3 °F 9.8 °F 10.8 °F 67% 30.48 in 10.0 mi SSE 9.2 mph - N/A   Mostly Cloudy
5:35 PM 20.7 °F 11.0 °F 11.1 °F 67% 30.47 in 10.0 mi SSE 8.1 mph - N/A   Overcast
5:55 PM 21.0 °F 9.3 °F 11.8 °F 68% 30.45 in 10.0 mi SSE 11.5 mph - N/A   Overcast
6:15 PM 21.2 °F 9.5 °F 11.7 °F 67% 30.45 in 10.0 mi SSE 11.5 mph - N/A   Overcast
6:35 PM 21.6 °F 10.6 °F 11.8 °F 66% 30.44 in 10.0 mi SSE 10.4 mph 17.3 mph N/A   Overcast
6:55 PM 21.6 °F 9.9 °F 11.3 °F 65% 30.44 in 10.0 mi SSE 11.5 mph 18.4 mph N/A   Overcast
7:15 PM 21.7 °F 7.5 °F 10.8 °F 63% 30.44 in 10.0 mi SSE 17.3 mph 21.9 mph N/A   Overcast
7:35 PM 21.6 °F 7.8 °F 10.8 °F 63% 30.43 in 10.0 mi SSE 16.1 mph 19.6 mph N/A   Mostly Cloudy
7:55 PM 21.6 °F 7.3 °F 10.9 °F 64% 30.41 in 10.0 mi SSE 17.3 mph - N/A   Overcast
8:15 PM 21.6 °F 8.8 °F 10.6 °F 63% 30.40 in 10.0 mi SSE 13.8 mph 20.7 mph N/A   Overcast
8:35 PM 21.7 °F 7.1 °F 11.3 °F 64% 30.41 in 10.0 mi SSE 18.4 mph - N/A   Mostly Cloudy
8:55 PM 21.9 °F 9.2 °F 11.1 °F 63% 30.40 in 10.0 mi SSE 13.8 mph 20.7 mph N/A   Scattered Clouds
9:15 PM 21.7 °F 8.5 °F 11.3 °F 64% 30.39 in 10.0 mi SSE 15.0 mph 21.9 mph N/A   Clear
9:35 PM 21.7 °F 8.0 °F 11.3 °F 64% 30.39 in 10.0 mi SSE 16.1 mph 20.7 mph N/A   Clear
9:55 PM 21.9 °F 9.2 °F 12.0 °F 66% 30.39 in 10.0 mi SSE 13.8 mph 17.3 mph N/A   Mostly Cloudy
10:15 PM 22.1 °F 9.5 °F 12.2 °F 66% 30.39 in 10.0 mi SSE 13.8 mph 19.6 mph N/A   Overcast
10:35 PM 22.5 °F 11.7 °F 12.7 °F 66% 30.39 in 10.0 mi South 10.4 mph - N/A   Overcast
10:55 PM 22.6 °F 11.9 °F 12.4 °F 65% 30.38 in 10.0 mi South 10.4 mph 18.4 mph N/A   Overcast
11:15 PM 22.6 °F 10.7 °F 11.7 °F 63% 30.38 in 10.0 mi South 12.7 mph - N/A   Overcast
11:35 PM 22.6 °F 10.1 °F 12.0 °F 64% 30.38 in 10.0 mi South 13.8 mph - N/A   Overcast
11:55 PM 22.8 °F 10.4 °F 12.4 °F 64% 30.38 in 10.0 mi South 13.8 mph - N/A   Overcast